Deo Volente — PHFJ — position and weather

sailwx.info

Track history (hours):
 
Tides and Currents Weather Stations Pressure Air Temp Water Temp Dewpoint Dewpoint Depression Visibility Wind Speed Wind Dir Waves Ship Positions

Deo Volente

Last reported at 2014-Nov-01 05:32 UTC. Time now 2014-Nov-01 06:49 UTC.
Position N 52°42' E 001°56'.

Length 105 m; draft 5.1 m.

Type: Cargo ship. MMSI: 246518000.

Date/timePositionNaut miles runAvg speedWind from/ knotsBaromVisibWave heightAir tempDewpointWater temp
2014-Nov-01 05:32N 52°42' E 001°56'1212.5
2014-Nov-01 04:33N 52°30' E 001°55'1211.6
2014-Nov-01 03:33N 52°18' E 001°53'1111.2
2014-Nov-01 02:33N 52°07' E 001°51'1110.9
2014-Nov-01 01:34N 51°56' E 001°49'1211.8
2014-Nov-01 00:33N 51°44' E 001°49'1212.4
2014-Oct-31 23:33N 51°32' E 001°47'1312.8
2014-Oct-31 22:34N 51°20' E 001°41'1111.4
2014-Oct-31 21:34N 51°08' E 001°41'1312.9
2014-Oct-31 20:33N 50°57' E 001°29'1413.6
2014-Oct-31 19:33N 50°45' E 001°21'1713.2
2014-Oct-31 18:16N 50°30' E 001°06'3 0.1
2014-Oct-29 23:33N 50°27' E 001°07'1616.5
2014-Oct-29 22:33N 50°41' E 000°54'1818.3
2014-Oct-29 21:33N 50°56' E 001°11'1817.9
2014-Oct-29 20:34N 51°07' E 001°33'1717.4
2014-Oct-29 19:34N 51°20' E 001°52'1616.4
2014-Oct-29 18:33N 51°33' E 002°09'6315.4
2014-Oct-29 14:28N 52°03' E 003°38'1415.3
2014-Oct-29 13:34N 52°01' E 004°00'1414.3
2014-Oct-29 12:33N 51°54' E 004°20'5 4.9
2014-Oct-29 11:33N 51°54' E 004°28'0 0.0
2014-Oct-29 10:33N 51°54' E 004°28'0 0.0
2014-Oct-29 09:33N 51°54' E 004°28'0 0.0
2014-Oct-29 08:33N 51°54' E 004°28'0 0.0
2014-Oct-29 07:33N 51°54' E 004°28'0 0.0
2014-Oct-29 06:33N 51°54' E 004°28'0 0.0
2014-Oct-29 05:33N 51°54' E 004°28'5 5.0
2014-Oct-29 04:33N 51°54' E 004°20'1515.1
2014-Oct-29 03:34N 52°00' E 003°58'9 9.3
2014-Oct-29 02:33N 52°07' E 003°47'1110.8
2014-Oct-29 01:33N 52°17' E 003°47'1511.1
2014-Oct-29 00:10N 52°32' E 003°53'711.8
2014-Oct-28 23:33N 52°37' E 004°02'1212.1
2014-Oct-28 22:33N 52°45' E 004°17'1312.9
2014-Oct-28 21:33N 52°57' E 004°26'1414.1
2014-Oct-28 20:32N 53°09' E 004°38'1313.7
2014-Oct-28 19:33N 53°20' E 004°52'1313.3
2014-Oct-28 18:34N 53°27' E 005°10'1313.3
2014-Oct-28 17:33N 53°32' E 005°31'1413.8
2014-Oct-28 16:33N 53°35' E 005°54'1514.0
2014-Oct-28 15:30N 53°38' E 006°18'1414.7
2014-Oct-28 14:33N 53°34' E 006°41'1615.7
2014-Oct-28 13:34N 53°22' E 006°59'8 7.9
2014-Oct-28 12:33N 53°20' E 007°11'0 0.3
2014-Oct-28 11:33N 53°20' E 007°12'0 0.0
2014-Oct-28 10:33N 53°20' E 007°12'0 0.0
2014-Oct-28 09:33N 53°20' E 007°12'0 0.0
2014-Oct-28 08:34N 53°20' E 007°12'0 0.0
2014-Oct-28 07:33N 53°20' E 007°12'0 0.0
2014-Oct-28 06:33N 53°20' E 007°12'0 0.0
2014-Oct-28 05:33N 53°20' E 007°12'0 0.0
2014-Oct-28 04:34N 53°20' E 007°12'0 0.0
2014-Oct-28 03:33N 53°20' E 007°12'0 0.0
2014-Oct-28 02:34N 53°20' E 007°12'0 0.0
2014-Oct-28 01:33N 53°20' E 007°12'0 0.0
2014-Oct-28 00:33N 53°20' E 007°12'0 0.0
2014-Oct-27 23:33N 53°20' E 007°12'0 0.0
2014-Oct-27 22:34N 53°20' E 007°12'0 0.0
2014-Oct-27 21:33N 53°20' E 007°12'0 0.0
2014-Oct-27 20:33N 53°20' E 007°12'0 0.0
2014-Oct-27 19:33N 53°20' E 007°12'0 0.0
2014-Oct-27 18:33N 53°20' E 007°12'0 0.0
2014-Oct-27 17:34N 53°20' E 007°12'0 0.0
2014-Oct-27 16:33N 53°20' E 007°12'0 0.0
2014-Oct-27 15:33N 53°20' E 007°12'0 0.0
2014-Oct-27 14:33N 53°20' E 007°12'0 0.0
2014-Oct-27 13:33N 53°20' E 007°12'0 0.0
2014-Oct-27 12:34N 53°20' E 007°12'0 0.0
2014-Oct-27 11:33N 53°20' E 007°12'1 0.9
2014-Oct-27 10:33N 53°20' E 007°10'1010.0
2014-Oct-27 09:33N 53°25' E 006°56'1817.2
2014-Oct-27 08:30N 53°37' E 006°32'9 3.0
2014-Oct-27 05:29N 53°36' E 006°17'0 0.0
2014-Oct-27 04:17N 53°36' E 006°17'0 0.0
2014-Oct-27 03:26N 53°36' E 006°17'0 0.0
2014-Oct-27 02:32N 53°36' E 006°17'0 0.0
2014-Oct-27 01:29N 53°36' E 006°17'0 0.0
2014-Oct-27 00:26N 53°36' E 006°17'0 0.0
2014-Oct-26 23:32N 53°36' E 006°17'0 0.0
2014-Oct-26 20:23N 53°36' E 006°17'0 0.0
2014-Oct-26 17:17N 53°36' E 006°17'0 0.1
2014-Oct-26 16:32N 53°36' E 006°17'0 0.0
2014-Oct-26 15:32N 53°36' E 006°17'0 0.0
2014-Oct-26 14:20N 53°36' E 006°17'0 0.0
2014-Oct-26 13:17N 53°36' E 006°17'0 0.0
2014-Oct-26 12:32N 53°36' E 006°17'0 0.0
2014-Oct-26 11:29N 53°36' E 006°17'0 0.0
2014-Oct-26 10:14N 53°36' E 006°17'0 0.0
2014-Oct-26 06:23N 53°36' E 006°17'0 0.1
2014-Oct-26 05:23N 53°36' E 006°17'0 0.0
2014-Oct-26 04:32N 53°36' E 006°17'0 0.0
2014-Oct-26 03:32N 53°36' E 006°17'0 0.0
2014-Oct-26 02:29N 53°36' E 006°17'0 0.0
2014-Oct-26 01:29N 53°36' E 006°17'0 0.0
2014-Oct-26 00:32N 53°36' E 006°17'0 0.0
2014-Oct-25 23:32N 53°36' E 006°17'0 0.0
2014-Oct-25 20:26N 53°36' E 006°17'5 5.4
2014-Oct-25 19:33N 53°38' E 006°10'1515.0
2014-Oct-25 18:34N 53°36' E 005°45'1615.5
2014-Oct-25 17:34N 53°32' E 005°20'1515.1
2014-Oct-25 16:34N 53°27' E 004°56'4514.7
2014-Oct-25 13:30N 52°51' E 004°12'9913.8
2014-Oct-25 06:20N 51°36' E 002°26'1315.2
2014-Oct-25 05:30N 51°25' E 002°15'1515.5
2014-Oct-25 04:34N 51°14' E 002°01'1615.9
2014-Oct-25 03:34N 51°03' E 001°42'10116.7
2014-Oct-24 21:29N 49°43' E 000°06'1516.2
2014-Oct-24 20:34N 49°29' W 000°04'1312.9
2014-Oct-24 19:33N 49°26' E 000°15'1211.3
2014-Oct-24 18:31N 49°28' E 000°33'0 0.0
2014-Oct-23 23:10N 49°28' E 000°33'6 9.7
2014-Oct-23 22:33N 49°27' E 000°24'1413.7
2014-Oct-23 21:33N 49°27' E 000°03'5 4.8
2014-Oct-23 20:34N 49°28' W 000°04'0 0.0
2014-Oct-23 19:33N 49°28' W 000°04'0 0.0
2014-Oct-23 18:33N 49°28' W 000°04'0 0.0
2014-Oct-23 17:33N 49°28' W 000°04'0 0.1
2014-Oct-23 16:33N 49°28' W 000°05'0 0.0
2014-Oct-23 15:34N 49°28' W 000°05'0 0.0
2014-Oct-23 14:33N 49°28' W 000°05'0 0.1
2014-Oct-23 13:33N 49°28' W 000°05'0 0.0
2014-Oct-23 12:33N 49°28' W 000°05'0 0.0
2014-Oct-23 11:33N 49°28' W 000°04'0 0.0
2014-Oct-23 10:33N 49°28' W 000°04'0 0.0
2014-Oct-23 09:33N 49°28' W 000°04'0 0.0
2014-Oct-23 08:33N 49°28' W 000°04'0 0.0
2014-Oct-23 07:33N 49°28' W 000°04'0 0.0
2014-Oct-23 06:34N 49°28' W 000°04'5 5.0
2014-Oct-23 05:33N 49°33' W 000°04'9 9.0
2014-Oct-23 04:33N 49°42' E 000°01'55 9.1
2014-Oct-22 22:33N 50°31' E 000°36'7 6.7
2014-Oct-22 21:33N 50°37' E 000°42'7 7.4
2014-Oct-22 20:34N 50°42' E 000°51'8 7.8
2014-Oct-22 19:33N 50°46' E 001°01'10 9.3
2014-Oct-22 18:29N 50°53' E 001°12'1111.5
2014-Oct-22 17:33N 51°02' E 001°23'1212.0
2014-Oct-22 16:33N 51°11' E 001°35'1110.5
2014-Oct-22 15:33N 51°21' E 001°41'10 9.7
2014-Oct-22 14:33N 51°30' E 001°45'9 9.4
2014-Oct-22 13:33N 51°40' E 001°45'9 9.2
2014-Oct-22 12:33N 51°49' E 001°44'9 9.3
2014-Oct-22 11:33N 51°58' E 001°46'10 9.6
2014-Oct-22 10:33N 52°07' E 001°48'1110.7
2014-Oct-22 09:33N 52°18' E 001°50'1111.2
2014-Oct-22 08:33N 52°29' E 001°53'1313.3
2014-Oct-22 07:33N 52°42' E 001°56'1413.9
2014-Oct-22 06:34N 52°53' E 001°41'1414.3
2014-Oct-22 05:33N 53°02' E 001°22'  
Track history (hours):
 
Tides and Currents Weather Stations Pressure Air Temp Water Temp Dewpoint Dewpoint Depression Visibility Wind Speed Wind Dir Waves Ship Positions

Deo Volente

Last reported at 2014-Nov-01 05:32 UTC. Time now 2014-Nov-01 06:49 UTC.
Position N 52°42' E 001°56'.

Length 105 m; draft 5.1 m.

Type: Cargo ship. MMSI: 246518000.

Date/timePositionNaut miles runAvg speedWind from/ knotsBaromVisibWave heightAir tempDewpointWater temp
2014-Nov-01 05:32N 52°42' E 001°56'1212.5
2014-Nov-01 04:33N 52°30' E 001°55'1211.6
2014-Nov-01 03:33N 52°18' E 001°53'1111.2
2014-Nov-01 02:33N 52°07' E 001°51'1110.9
2014-Nov-01 01:34N 51°56' E 001°49'1211.8
2014-Nov-01 00:33N 51°44' E 001°49'1212.4
2014-Oct-31 23:33N 51°32' E 001°47'1312.8
2014-Oct-31 22:34N 51°20' E 001°41'1111.4
2014-Oct-31 21:34N 51°08' E 001°41'1312.9
2014-Oct-31 20:33N 50°57' E 001°29'1413.6
2014-Oct-31 19:33N 50°45' E 001°21'1713.2
2014-Oct-31 18:16N 50°30' E 001°06'3 0.1
2014-Oct-29 23:33N 50°27' E 001°07'1616.5
2014-Oct-29 22:33N 50°41' E 000°54'1818.3
2014-Oct-29 21:33N 50°56' E 001°11'1817.9
2014-Oct-29 20:34N 51°07' E 001°33'1717.4
2014-Oct-29 19:34N 51°20' E 001°52'1616.4
2014-Oct-29 18:33N 51°33' E 002°09'6315.4
2014-Oct-29 14:28N 52°03' E 003°38'1415.3
2014-Oct-29 13:34N 52°01' E 004°00'1414.3
2014-Oct-29 12:33N 51°54' E 004°20'5 4.9
2014-Oct-29 11:33N 51°54' E 004°28'0 0.0
2014-Oct-29 10:33N 51°54' E 004°28'0 0.0
2014-Oct-29 09:33N 51°54' E 004°28'0 0.0
2014-Oct-29 08:33N 51°54' E 004°28'0 0.0
2014-Oct-29 07:33N 51°54' E 004°28'0 0.0
2014-Oct-29 06:33N 51°54' E 004°28'0 0.0
2014-Oct-29 05:33N 51°54' E 004°28'5 5.0
2014-Oct-29 04:33N 51°54' E 004°20'1515.1
2014-Oct-29 03:34N 52°00' E 003°58'9 9.3
2014-Oct-29 02:33N 52°07' E 003°47'1110.8
2014-Oct-29 01:33N 52°17' E 003°47'1511.1
2014-Oct-29 00:10N 52°32' E 003°53'711.8
2014-Oct-28 23:33N 52°37' E 004°02'1212.1
2014-Oct-28 22:33N 52°45' E 004°17'1312.9
2014-Oct-28 21:33N 52°57' E 004°26'1414.1
2014-Oct-28 20:32N 53°09' E 004°38'1313.7
2014-Oct-28 19:33N 53°20' E 004°52'1313.3
2014-Oct-28 18:34N 53°27' E 005°10'1313.3
2014-Oct-28 17:33N 53°32' E 005°31'1413.8
2014-Oct-28 16:33N 53°35' E 005°54'1514.0
2014-Oct-28 15:30N 53°38' E 006°18'1414.7
2014-Oct-28 14:33N 53°34' E 006°41'1615.7
2014-Oct-28 13:34N 53°22' E 006°59'8 7.9
2014-Oct-28 12:33N 53°20' E 007°11'0 0.3
2014-Oct-28 11:33N 53°20' E 007°12'0 0.0
2014-Oct-28 10:33N 53°20' E 007°12'0 0.0
2014-Oct-28 09:33N 53°20' E 007°12'0 0.0
2014-Oct-28 08:34N 53°20' E 007°12'0 0.0
2014-Oct-28 07:33N 53°20' E 007°12'0 0.0
2014-Oct-28 06:33N 53°20' E 007°12'0 0.0
2014-Oct-28 05:33N 53°20' E 007°12'0 0.0
2014-Oct-28 04:34N 53°20' E 007°12'0 0.0
2014-Oct-28 03:33N 53°20' E 007°12'0 0.0
2014-Oct-28 02:34N 53°20' E 007°12'0 0.0
2014-Oct-28 01:33N 53°20' E 007°12'0 0.0
2014-Oct-28 00:33N 53°20' E 007°12'0 0.0
2014-Oct-27 23:33N 53°20' E 007°12'0 0.0
2014-Oct-27 22:34N 53°20' E 007°12'0 0.0
2014-Oct-27 21:33N 53°20' E 007°12'0 0.0
2014-Oct-27 20:33N 53°20' E 007°12'0 0.0
2014-Oct-27 19:33N 53°20' E 007°12'0 0.0
2014-Oct-27 18:33N 53°20' E 007°12'0 0.0
2014-Oct-27 17:34N 53°20' E 007°12'0 0.0
2014-Oct-27 16:33N 53°20' E 007°12'0 0.0
2014-Oct-27 15:33N 53°20' E 007°12'0 0.0
2014-Oct-27 14:33N 53°20' E 007°12'0 0.0
2014-Oct-27 13:33N 53°20' E 007°12'0 0.0
2014-Oct-27 12:34N 53°20' E 007°12'0 0.0
2014-Oct-27 11:33N 53°20' E 007°12'1 0.9
2014-Oct-27 10:33N 53°20' E 007°10'1010.0
2014-Oct-27 09:33N 53°25' E 006°56'1817.2
2014-Oct-27 08:30N 53°37' E 006°32'9 3.0
2014-Oct-27 05:29N 53°36' E 006°17'0 0.0
2014-Oct-27 04:17N 53°36' E 006°17'0 0.0
2014-Oct-27 03:26N 53°36' E 006°17'0 0.0
2014-Oct-27 02:32N 53°36' E 006°17'0 0.0
2014-Oct-27 01:29N 53°36' E 006°17'0 0.0
2014-Oct-27 00:26N 53°36' E 006°17'0 0.0
2014-Oct-26 23:32N 53°36' E 006°17'0 0.0
2014-Oct-26 20:23N 53°36' E 006°17'0 0.0
2014-Oct-26 17:17N 53°36' E 006°17'0 0.1
2014-Oct-26 16:32N 53°36' E 006°17'0 0.0
2014-Oct-26 15:32N 53°36' E 006°17'0 0.0
2014-Oct-26 14:20N 53°36' E 006°17'0 0.0
2014-Oct-26 13:17N 53°36' E 006°17'0 0.0
2014-Oct-26 12:32N 53°36' E 006°17'0 0.0
2014-Oct-26 11:29N 53°36' E 006°17'0 0.0
2014-Oct-26 10:14N 53°36' E 006°17'0 0.0
2014-Oct-26 06:23N 53°36' E 006°17'0 0.1
2014-Oct-26 05:23N 53°36' E 006°17'0 0.0
2014-Oct-26 04:32N 53°36' E 006°17'0 0.0
2014-Oct-26 03:32N 53°36' E 006°17'0 0.0
2014-Oct-26 02:29N 53°36' E 006°17'0 0.0
2014-Oct-26 01:29N 53°36' E 006°17'0 0.0
2014-Oct-26 00:32N 53°36' E 006°17'0 0.0
2014-Oct-25 23:32N 53°36' E 006°17'0 0.0
2014-Oct-25 20:26N 53°36' E 006°17'5 5.4
2014-Oct-25 19:33N 53°38' E 006°10'1515.0
2014-Oct-25 18:34N 53°36' E 005°45'1615.5
2014-Oct-25 17:34N 53°32' E 005°20'1515.1
2014-Oct-25 16:34N 53°27' E 004°56'4514.7
2014-Oct-25 13:30N 52°51' E 004°12'9913.8
2014-Oct-25 06:20N 51°36' E 002°26'1315.2
2014-Oct-25 05:30N 51°25' E 002°15'1515.5
2014-Oct-25 04:34N 51°14' E 002°01'1615.9
2014-Oct-25 03:34N 51°03' E 001°42'10116.7
2014-Oct-24 21:29N 49°43' E 000°06'1516.2
2014-Oct-24 20:34N 49°29' W 000°04'1312.9
2014-Oct-24 19:33N 49°26' E 000°15'1211.3
2014-Oct-24 18:31N 49°28' E 000°33'0 0.0
2014-Oct-23 23:10N 49°28' E 000°33'6 9.7
2014-Oct-23 22:33N 49°27' E 000°24'1413.7
2014-Oct-23 21:33N 49°27' E 000°03'5 4.8
2014-Oct-23 20:34N 49°28' W 000°04'0 0.0
2014-Oct-23 19:33N 49°28' W 000°04'0 0.0
2014-Oct-23 18:33N 49°28' W 000°04'0 0.0
2014-Oct-23 17:33N 49°28' W 000°04'0 0.1
2014-Oct-23 16:33N 49°28' W 000°05'0 0.0
2014-Oct-23 15:34N 49°28' W 000°05'0 0.0
2014-Oct-23 14:33N 49°28' W 000°05'0 0.1
2014-Oct-23 13:33N 49°28' W 000°05'0 0.0
2014-Oct-23 12:33N 49°28' W 000°05'0 0.0
2014-Oct-23 11:33N 49°28' W 000°04'0 0.0
2014-Oct-23 10:33N 49°28' W 000°04'0 0.0
2014-Oct-23 09:33N 49°28' W 000°04'0 0.0
2014-Oct-23 08:33N 49°28' W 000°04'0 0.0
2014-Oct-23 07:33N 49°28' W 000°04'0 0.0
2014-Oct-23 06:34N 49°28' W 000°04'5 5.0
2014-Oct-23 05:33N 49°33' W 000°04'9 9.0
2014-Oct-23 04:33N 49°42' E 000°01'55 9.1
2014-Oct-22 22:33N 50°31' E 000°36'7 6.7
2014-Oct-22 21:33N 50°37' E 000°42'7 7.4
2014-Oct-22 20:34N 50°42' E 000°51'8 7.8
2014-Oct-22 19:33N 50°46' E 001°01'10 9.3
2014-Oct-22 18:29N 50°53' E 001°12'1111.5
2014-Oct-22 17:33N 51°02' E 001°23'1212.0
2014-Oct-22 16:33N 51°11' E 001°35'1110.5
2014-Oct-22 15:33N 51°21' E 001°41'10 9.7
2014-Oct-22 14:33N 51°30' E 001°45'9 9.4
2014-Oct-22 13:33N 51°40' E 001°45'9 9.2
2014-Oct-22 12:33N 51°49' E 001°44'9 9.3
2014-Oct-22 11:33N 51°58' E 001°46'10 9.6
2014-Oct-22 10:33N 52°07' E 001°48'1110.7
2014-Oct-22 09:33N 52°18' E 001°50'1111.2
2014-Oct-22 08:33N 52°29' E 001°53'1313.3
2014-Oct-22 07:33N 52°42' E 001°56'1413.9
2014-Oct-22 06:34N 52°53' E 001°41'1414.3
2014-Oct-22 05:33N 53°02' E 001°22'  

Dump ship's entire track history